createdAt,value
2019-02-15T00:00:36.321Z,70.30
2019-02-15T00:01:14.197Z,70.30
2019-02-15T00:01:50.160Z,70.60
2019-02-15T00:02:26.402Z,70.70
2019-02-15T00:03:01.961Z,71.00
2019-02-15T00:03:39.205Z,71.00
2019-02-15T00:04:14.413Z,71.10
2019-02-15T00:04:49.804Z,71.10
2019-02-15T00:05:25.276Z,71.00
2019-02-15T00:06:00.804Z,71.20
2019-02-15T00:06:35.372Z,71.30
2019-02-15T00:07:10.045Z,71.60
2019-02-15T00:07:44.593Z,71.60
2019-02-15T00:08:19.258Z,71.80
2019-02-15T00:08:56.667Z,73.00
2019-02-15T00:09:30.253Z,76.00
2019-02-15T00:10:06.212Z,77.20
2019-02-15T00:10:40.809Z,78.10
2019-02-15T00:11:15.300Z,78.10
2019-02-15T00:11:49.795Z,77.80
2019-02-15T00:12:24.342Z,77.40
2019-02-15T00:12:58.849Z,76.80
2019-02-15T00:13:33.336Z,76.30
2019-02-15T00:14:07.830Z,75.80
2019-02-15T00:14:47.628Z,75.20
2019-02-15T00:15:22.140Z,74.50
2019-02-15T00:15:56.710Z,72.00
2019-02-15T00:16:31.281Z,72.20
2019-02-15T00:17:06.116Z,71.20
2019-02-15T00:17:51.257Z,70.90
2019-02-15T00:18:34.815Z,71.30
2019-02-15T00:19:11.075Z,70.80
2019-02-15T00:19:47.207Z,70.70
2019-02-15T00:20:32.737Z,70.70
2019-02-15T00:21:11.705Z,70.60
2019-02-15T00:21:46.590Z,70.40
2019-02-15T00:22:21.169Z,70.40
2019-02-15T00:22:55.754Z,70.40
2019-02-15T00:23:30.329Z,70.50
2019-02-15T00:24:04.817Z,70.40
2019-02-15T00:24:39.312Z,70.40
2019-02-15T00:25:13.803Z,70.40
2019-02-15T00:25:48.291Z,70.50
2019-02-15T00:26:22.776Z,70.50
2019-02-15T00:26:57.276Z,71.30
2019-02-15T00:27:31.766Z,70.70
2019-02-15T00:28:06.693Z,70.70
2019-02-15T00:28:41.348Z,70.90
2019-02-15T00:29:15.846Z,71.10
2019-02-15T00:29:50.444Z,71.30
2019-02-15T00:30:25.010Z,71.30
2019-02-15T00:30:59.572Z,71.40
2019-02-15T00:31:34.063Z,71.00
2019-02-15T00:32:08.551Z,71.40
2019-02-15T00:32:43.035Z,71.50
2019-02-15T00:33:17.586Z,71.70
2019-02-15T00:33:52.215Z,71.80
2019-02-15T00:34:26.749Z,72.00
2019-02-15T00:35:01.242Z,72.20
2019-02-15T00:35:36.153Z,72.20
2019-02-15T00:36:10.915Z,72.30
2019-02-15T00:36:45.423Z,72.40
2019-02-15T00:37:19.920Z,72.40
2019-02-15T00:37:54.880Z,72.50
2019-02-15T00:38:29.648Z,72.40
2019-02-15T00:39:05.646Z,72.30
2019-02-15T00:39:40.221Z,72.60
2019-02-15T00:40:14.794Z,72.40
2019-02-15T00:40:50.561Z,72.40
2019-02-15T00:41:25.095Z,72.40
2019-02-15T00:41:59.675Z,72.40
2019-02-15T00:42:34.168Z,72.40
2019-02-15T00:43:08.668Z,72.50
2019-02-15T00:43:43.265Z,72.50
2019-02-15T00:44:17.830Z,72.40
2019-02-15T00:44:52.493Z,72.40
2019-02-15T00:45:28.636Z,72.50
2019-02-15T00:46:19.486Z,72.50
2019-02-15T00:47:04.717Z,72.60
2019-02-15T00:47:40.856Z,72.60
2019-02-15T00:48:17.138Z,72.60
2019-02-15T00:48:52.031Z,72.60
2019-02-15T00:49:28.260Z,72.50
2019-02-15T00:50:04.409Z,72.30
2019-02-15T00:50:43.386Z,72.20
2019-02-15T00:51:36.002Z,72.20
2019-02-15T00:52:18.450Z,72.10
2019-02-15T00:53:09.612Z,72.00
2019-02-15T00:53:58.181Z,71.90
2019-02-15T00:54:34.320Z,71.90
2019-02-15T00:55:10.466Z,71.80
2019-02-15T00:55:52.667Z,71.90
2019-02-15T00:56:41.481Z,72.00
2019-02-15T00:57:34.146Z,71.90
2019-02-15T00:58:13.257Z,71.70
2019-02-15T00:59:07.687Z,71.50
2019-02-15T00:59:43.904Z,71.50
2019-02-15T01:00:32.128Z,71.30
2019-02-15T01:01:08.274Z,71.20
2019-02-15T01:02:00.692Z,71.10
2019-02-15T01:02:45.887Z,71.10
2019-02-15T01:03:30.928Z,71.30
2019-02-15T01:04:19.167Z,71.20
2019-02-15T01:05:14.541Z,71.30
2019-02-15T01:05:53.299Z,71.30
2019-02-15T01:06:45.973Z,71.30
2019-02-15T01:07:34.171Z,71.30
2019-02-15T01:08:13.089Z,71.30
2019-02-15T01:08:49.314Z,71.50
2019-02-15T01:09:29.032Z,71.60
2019-02-15T01:10:15.181Z,71.60
2019-02-15T01:10:54.500Z,71.80
2019-02-15T01:11:36.877Z,72.10
2019-02-15T01:12:13.031Z,72.30
2019-02-15T01:12:49.241Z,72.20
2019-02-15T01:13:30.917Z,72.30
2019-02-15T01:14:00.186Z,72.30
2019-02-15T01:14:34.695Z,72.60
2019-02-15T01:15:09.617Z,72.50
2019-02-15T01:15:44.194Z,72.60
2019-02-15T01:16:18.764Z,72.70
2019-02-15T01:16:53.270Z,72.70
2019-02-15T01:17:27.814Z,72.80
2019-02-15T01:18:02.509Z,72.70
2019-02-15T01:18:37.079Z,72.90
2019-02-15T01:19:11.585Z,73.00
2019-02-15T01:19:46.121Z,72.90
2019-02-15T01:20:21.885Z,72.90
2019-02-15T01:20:56.745Z,72.80
2019-02-15T01:21:31.229Z,72.70
2019-02-15T01:22:05.799Z,72.80
2019-02-15T01:22:40.288Z,72.80
2019-02-15T01:23:14.927Z,72.80
2019-02-15T01:23:49.547Z,72.60
2019-02-15T01:24:24.106Z,72.60
2019-02-15T01:24:59.099Z,72.80
2019-02-15T01:25:35.240Z,72.60
2019-02-15T01:26:13.903Z,72.50
2019-02-15T01:26:50.194Z,72.60
2019-02-15T01:27:26.366Z,72.60
2019-02-15T01:28:05.237Z,72.60
2019-02-15T01:28:44.347Z,72.60
2019-02-15T01:29:29.385Z,72.60
2019-02-15T01:30:10.167Z,72.60
2019-02-15T01:30:49.044Z,72.60
2019-02-15T01:31:40.044Z,72.80
2019-02-15T01:32:31.314Z,72.80
2019-02-15T01:33:23.885Z,72.70
2019-02-15T01:34:00.010Z,72.80
2019-02-15T01:34:45.220Z,72.70
2019-02-15T01:35:30.177Z,72.60
2019-02-15T01:36:09.152Z,72.60
2019-02-15T01:36:45.334Z,72.60
2019-02-15T01:37:36.399Z,72.50
2019-02-15T01:38:12.610Z,72.30
2019-02-15T01:38:48.747Z,72.40
2019-02-15T01:39:30.611Z,72.40
2019-02-15T01:40:10.080Z,73.10
2019-02-15T01:40:48.949Z,72.60
2019-02-15T01:41:25.137Z,72.60
2019-02-15T01:42:04.332Z,72.60
2019-02-15T01:42:43.427Z,72.70
2019-02-15T01:43:22.206Z,72.60
2019-02-15T01:44:01.042Z,72.70
2019-02-15T01:44:43.054Z,72.70
2019-02-15T01:45:19.269Z,72.80
2019-02-15T01:45:55.500Z,72.90
2019-02-15T01:46:31.768Z,73.00
2019-02-15T01:47:08.015Z,72.90
2019-02-15T01:47:43.033Z,73.00
2019-02-15T01:48:17.525Z,73.10
2019-02-15T01:48:52.048Z,73.30
2019-02-15T01:49:26.550Z,73.30
2019-02-15T01:50:01.119Z,73.50
2019-02-15T01:50:35.672Z,73.40
2019-02-15T01:51:10.183Z,73.40
2019-02-15T01:51:44.685Z,73.40
2019-02-15T01:52:19.193Z,73.40
2019-02-15T01:52:53.699Z,73.30
2019-02-15T01:53:28.264Z,73.10
2019-02-15T01:54:02.779Z,73.00
2019-02-15T01:54:37.274Z,72.90
2019-02-15T01:55:11.777Z,73.10
2019-02-15T01:55:46.333Z,73.10
2019-02-15T01:56:20.844Z,73.20
2019-02-15T01:56:55.476Z,73.20
2019-02-15T01:57:30.082Z,73.30
2019-02-15T01:58:04.589Z,73.30
2019-02-15T01:58:39.505Z,73.30
2019-02-15T01:59:14.153Z,73.20
2019-02-15T01:59:48.677Z,73.20
2019-02-15T02:00:24.822Z,73.90
2019-02-15T02:00:59.390Z,73.20
2019-02-15T02:01:33.906Z,73.20
2019-02-15T02:02:08.471Z,73.30
2019-02-15T02:02:42.961Z,73.20
2019-02-15T02:03:17.460Z,73.30
2019-02-15T02:03:52.053Z,73.10
2019-02-15T02:04:26.522Z,73.00
2019-02-15T02:05:01.136Z,73.00
2019-02-15T02:05:35.643Z,73.00
2019-02-15T02:06:10.308Z,73.00
2019-02-15T02:06:44.813Z,72.90
2019-02-15T02:07:19.318Z,73.40
2019-02-15T02:07:53.813Z,72.80
2019-02-15T02:08:29.753Z,72.80
2019-02-15T02:09:05.162Z,72.70
2019-02-15T02:09:39.902Z,72.60
2019-02-15T02:10:14.614Z,72.50
2019-02-15T02:10:49.253Z,72.30
2019-02-15T02:11:23.780Z,72.30
2019-02-15T02:11:58.444Z,72.10
2019-02-15T02:12:32.934Z,72.20
2019-02-15T02:13:07.418Z,72.10
2019-02-15T02:13:49.338Z,72.00
2019-02-15T02:14:18.117Z,72.00
2019-02-15T02:14:52.704Z,72.00
2019-02-15T02:15:27.211Z,72.00
2019-02-15T02:16:01.728Z,71.90
2019-02-15T02:16:36.261Z,71.90
2019-02-15T02:17:11.485Z,71.90
2019-02-15T02:17:46.086Z,71.90
2019-02-15T02:18:20.685Z,71.80
2019-02-15T02:18:55.197Z,71.90
2019-02-15T02:19:29.749Z,71.70
2019-02-15T02:20:06.451Z,71.80
2019-02-15T02:20:40.930Z,71.70
2019-02-15T02:21:15.437Z,71.70
2019-02-15T02:21:50.108Z,71.80
2019-02-15T02:22:24.674Z,71.80
2019-02-15T02:23:01.684Z,71.70
2019-02-15T02:23:35.424Z,71.80
2019-02-15T02:24:09.924Z,72.00
2019-02-15T02:24:44.685Z,72.20
2019-02-15T02:25:19.524Z,72.10
2019-02-15T02:25:54.145Z,72.00
2019-02-15T02:26:28.764Z,72.00
2019-02-15T02:27:03.263Z,71.90
2019-02-15T02:27:37.819Z,71.90
2019-02-15T02:28:12.400Z,71.90
2019-02-15T02:28:46.907Z,71.90
2019-02-15T02:29:21.412Z,71.80
2019-02-15T02:29:55.897Z,71.80
2019-02-15T02:30:30.491Z,71.80
2019-02-15T02:31:05.057Z,71.80
2019-02-15T02:31:39.545Z,71.70
2019-02-15T02:32:14.040Z,71.70
2019-02-15T02:32:48.961Z,71.70
2019-02-15T02:33:23.464Z,71.60
2019-02-15T02:33:58.029Z,71.80
2019-02-15T02:34:32.530Z,72.10
2019-02-15T02:35:08.559Z,72.20
2019-02-15T02:35:43.123Z,73.00
2019-02-15T02:36:17.649Z,72.40
2019-02-15T02:36:53.605Z,72.40
2019-02-15T02:37:28.178Z,72.50
2019-02-15T02:38:02.726Z,72.50
2019-02-15T02:38:37.237Z,72.50
2019-02-15T02:39:11.729Z,72.60
2019-02-15T02:39:46.297Z,72.60
2019-02-15T02:40:20.823Z,72.40
2019-02-15T02:40:55.471Z,72.40
2019-02-15T02:41:30.044Z,72.40
2019-02-15T02:42:04.602Z,72.50
2019-02-15T02:42:39.220Z,72.60
2019-02-15T02:43:13.851Z,72.70
2019-02-15T02:43:48.480Z,72.90
2019-02-15T02:44:23.053Z,72.90
2019-02-15T02:44:57.639Z,73.00
2019-02-15T02:45:32.189Z,73.00
2019-02-15T02:46:06.769Z,73.10
2019-02-15T02:46:41.282Z,73.00
2019-02-15T02:47:15.778Z,72.90
2019-02-15T02:47:50.433Z,73.00
2019-02-15T02:48:24.925Z,72.90
2019-02-15T02:48:59.537Z,72.90
2019-02-15T02:49:34.129Z,72.90
2019-02-15T02:50:08.630Z,72.90
2019-02-15T02:50:44.388Z,72.80
2019-02-15T02:51:18.888Z,72.80
2019-02-15T02:51:53.446Z,72.80
2019-02-15T02:52:29.706Z,72.90
2019-02-15T02:53:04.301Z,73.00
2019-02-15T02:53:39.085Z,72.90
2019-02-15T02:54:13.753Z,73.00
2019-02-15T02:54:48.317Z,72.90
2019-02-15T02:55:22.905Z,73.00
2019-02-15T02:55:57.490Z,73.00
2019-02-15T02:56:31.984Z,73.70
2019-02-15T02:57:06.548Z,73.10
2019-02-15T02:57:43.631Z,73.20
2019-02-15T02:58:17.263Z,73.20
2019-02-15T02:58:51.822Z,73.20
2019-02-15T02:59:26.318Z,73.40
2019-02-15T03:00:00.917Z,73.50
2019-02-15T03:00:35.423Z,73.60
2019-02-15T03:01:10.067Z,73.70
2019-02-15T03:01:44.826Z,73.70
2019-02-15T03:02:19.444Z,73.60
2019-02-15T03:02:54.001Z,73.60
2019-02-15T03:03:28.503Z,73.50
2019-02-15T03:04:03.028Z,73.40
2019-02-15T03:04:37.743Z,73.40
2019-02-15T03:05:12.584Z,73.30
2019-02-15T03:05:47.143Z,73.30
2019-02-15T03:06:21.622Z,73.30
2019-02-15T03:06:56.175Z,73.30
2019-02-15T03:07:30.731Z,73.90
2019-02-15T03:08:05.273Z,73.40
2019-02-15T03:08:39.820Z,73.40
2019-02-15T03:09:14.309Z,73.40
2019-02-15T03:09:48.846Z,73.30
2019-02-15T03:10:23.428Z,73.30
2019-02-15T03:10:58.141Z,73.30
2019-02-15T03:11:32.632Z,73.30
2019-02-15T03:12:07.207Z,73.10
2019-02-15T03:12:41.738Z,73.20
2019-02-15T03:13:16.233Z,73.30
2019-02-15T03:13:50.742Z,73.30
2019-02-15T03:14:25.459Z,73.50
2019-02-15T03:15:00.043Z,73.50
2019-02-15T03:15:34.917Z,73.50
2019-02-15T03:16:09.484Z,73.70
2019-02-15T03:16:43.974Z,73.60
2019-02-15T03:17:18.498Z,73.70
2019-02-15T03:17:53.060Z,73.70
2019-02-15T03:18:27.552Z,73.60
2019-02-15T03:19:02.191Z,73.60
2019-02-15T03:19:36.753Z,73.20
2019-02-15T03:20:11.242Z,73.60
2019-02-15T03:20:45.819Z,73.70
2019-02-15T03:21:20.359Z,73.70
2019-02-15T03:21:54.942Z,73.70
2019-02-15T03:22:29.460Z,73.80
2019-02-15T03:23:05.486Z,73.80
2019-02-15T03:23:40.079Z,73.80
2019-02-15T03:24:14.625Z,73.90
2019-02-15T03:24:49.117Z,74.00
2019-02-15T03:25:25.555Z,74.10
2019-02-15T03:25:59.834Z,74.20
2019-02-15T03:26:34.422Z,74.40
2019-02-15T03:27:09.006Z,74.30
2019-02-15T03:27:44.834Z,74.30
2019-02-15T03:28:20.945Z,74.30
2019-02-15T03:28:55.517Z,74.20
2019-02-15T03:29:30.033Z,74.30
2019-02-15T03:30:07.146Z,74.30
2019-02-15T03:30:41.720Z,74.40
2019-02-15T03:31:16.319Z,74.50
2019-02-15T03:31:56.681Z,74.50
2019-02-15T03:32:31.284Z,74.40
2019-02-15T03:33:05.885Z,74.40
2019-02-15T03:33:40.434Z,74.30
2019-02-15T03:34:14.981Z,74.40
2019-02-15T03:34:49.841Z,75.00
2019-02-15T03:35:26.031Z,74.50
2019-02-15T03:36:05.013Z,74.50
2019-02-15T03:36:41.241Z,74.60
2019-02-15T03:37:20.374Z,74.70
2019-02-15T03:37:59.554Z,74.80
2019-02-15T03:38:41.801Z,74.80
2019-02-15T03:39:17.942Z,74.80
2019-02-15T03:39:54.223Z,75.00
2019-02-15T03:40:30.412Z,74.90
2019-02-15T03:41:06.562Z,74.80
2019-02-15T03:41:41.039Z,74.80
2019-02-15T03:42:15.783Z,74.70
2019-02-15T03:42:50.367Z,74.70
2019-02-15T03:43:24.920Z,74.80
2019-02-15T03:43:59.493Z,74.90
2019-02-15T03:44:34.149Z,74.90
2019-02-15T03:45:09.275Z,74.90
2019-02-15T03:45:44.655Z,74.80
2019-02-15T03:46:19.168Z,74.80
2019-02-15T03:46:53.766Z,74.90
2019-02-15T03:47:28.516Z,75.00
2019-02-15T03:48:03.148Z,75.10
2019-02-15T03:48:38.029Z,75.20
2019-02-15T03:49:12.680Z,75.30
2019-02-15T03:49:47.343Z,75.40
2019-02-15T03:50:21.919Z,75.40
2019-02-15T03:50:56.497Z,75.50
2019-02-15T03:51:31.122Z,75.40
2019-02-15T03:52:05.731Z,75.40
2019-02-15T03:52:40.305Z,75.30
2019-02-15T03:53:14.793Z,75.20
2019-02-15T03:53:49.341Z,75.20
2019-02-15T03:54:23.898Z,75.20
2019-02-15T03:54:58.766Z,75.30
2019-02-15T03:55:33.328Z,75.50
2019-02-15T03:56:07.893Z,75.60
2019-02-15T03:56:42.713Z,75.60
2019-02-15T03:57:17.356Z,75.70
2019-02-15T03:57:51.912Z,75.80
2019-02-15T03:58:26.540Z,75.80
2019-02-15T03:59:01.200Z,75.90
2019-02-15T03:59:35.697Z,75.90
2019-02-15T04:00:12.507Z,76.00
2019-02-15T04:00:47.154Z,75.90
2019-02-15T04:01:23.446Z,75.90
2019-02-15T04:01:58.027Z,75.90
2019-02-15T04:02:32.648Z,75.80
2019-02-15T04:03:07.520Z,75.70
2019-02-15T04:03:42.013Z,75.70
2019-02-15T04:04:16.588Z,75.70
2019-02-15T04:04:51.140Z,75.70
2019-02-15T04:05:25.726Z,75.70
2019-02-15T04:06:00.272Z,75.80
2019-02-15T04:06:34.788Z,75.80
2019-02-15T04:07:12.281Z,75.90
2019-02-15T04:07:49.416Z,75.90
2019-02-15T04:08:23.917Z,75.90
2019-02-15T04:08:58.529Z,75.90
2019-02-15T04:09:33.104Z,76.00
2019-02-15T04:10:09.182Z,76.00
2019-02-15T04:10:43.677Z,76.00
2019-02-15T04:11:18.180Z,75.90
2019-02-15T04:11:52.685Z,75.90
2019-02-15T04:12:27.297Z,75.90
2019-02-15T04:13:01.816Z,76.00
2019-02-15T04:13:36.345Z,76.20
2019-02-15T04:14:10.936Z,76.30
2019-02-15T04:14:45.499Z,76.30
2019-02-15T04:15:20.014Z,76.40
2019-02-15T04:15:54.664Z,76.40
2019-02-15T04:16:29.672Z,76.30
2019-02-15T04:17:04.170Z,76.40
2019-02-15T04:17:38.653Z,76.30
2019-02-15T04:18:13.170Z,76.40
2019-02-15T04:18:47.745Z,76.50
2019-02-15T04:19:22.244Z,76.60
2019-02-15T04:19:56.830Z,76.60
2019-02-15T04:20:31.400Z,76.60
2019-02-15T04:21:05.998Z,76.80
2019-02-15T04:21:40.596Z,76.90
2019-02-15T04:22:15.158Z,76.90
2019-02-15T04:22:49.723Z,77.00
2019-02-15T04:23:25.582Z,77.10
2019-02-15T04:24:00.222Z,77.10
2019-02-15T04:24:34.735Z,77.20
2019-02-15T04:25:09.228Z,77.20
2019-02-15T04:25:44.081Z,77.20
2019-02-15T04:26:18.579Z,77.20
2019-02-15T04:26:53.148Z,77.20
2019-02-15T04:27:27.643Z,77.30
2019-02-15T04:28:02.138Z,77.30
2019-02-15T04:28:36.698Z,77.10
2019-02-15T04:29:11.205Z,77.10
2019-02-15T04:29:45.799Z,77.00
2019-02-15T04:30:20.373Z,76.90
2019-02-15T04:30:55.003Z,76.90
2019-02-15T04:31:29.571Z,77.00
2019-02-15T04:32:04.076Z,76.90
2019-02-15T04:32:38.625Z,76.90
2019-02-15T04:33:13.212Z,77.00
2019-02-15T04:33:47.808Z,76.90
2019-02-15T04:34:22.374Z,77.00
2019-02-15T04:34:56.994Z,76.90
2019-02-15T04:35:31.493Z,77.10
2019-02-15T04:36:05.977Z,77.10
2019-02-15T04:36:40.523Z,77.10
2019-02-15T04:37:15.085Z,77.10
2019-02-15T04:37:49.577Z,77.10
2019-02-15T04:38:24.154Z,77.10
2019-02-15T04:38:58.732Z,77.20
2019-02-15T04:39:33.230Z,77.50
2019-02-15T04:40:09.981Z,77.60
2019-02-15T04:40:44.664Z,77.80
2019-02-15T04:41:19.191Z,78.00
2019-02-15T04:41:53.763Z,78.10
2019-02-15T04:42:28.386Z,78.10
2019-02-15T04:43:02.962Z,78.10
2019-02-15T04:43:37.531Z,78.20
2019-02-15T04:44:12.104Z,78.10
2019-02-15T04:44:46.605Z,78.20
2019-02-15T04:45:21.165Z,78.70
2019-02-15T04:45:55.727Z,78.00
2019-02-15T04:46:30.390Z,78.30
2019-02-15T04:47:04.974Z,78.10
2019-02-15T04:47:39.579Z,78.00
2019-02-15T04:48:14.142Z,77.90
2019-02-15T04:48:55.435Z,77.90
2019-02-15T04:49:31.163Z,77.90
2019-02-15T04:50:07.803Z,77.80
2019-02-15T04:50:42.384Z,77.90
2019-02-15T04:51:16.936Z,78.00
2019-02-15T04:51:51.439Z,78.10
2019-02-15T04:52:26.539Z,78.30
2019-02-15T04:53:03.142Z,78.30
2019-02-15T04:53:37.234Z,78.50
2019-02-15T04:54:11.805Z,78.40
2019-02-15T04:54:46.514Z,78.50
2019-02-15T04:55:21.017Z,78.60
2019-02-15T04:55:55.514Z,78.70
2019-02-15T04:56:30.371Z,78.80
2019-02-15T04:57:04.869Z,79.00
2019-02-15T04:57:39.464Z,78.90
2019-02-15T04:58:13.977Z,79.10
2019-02-15T04:58:48.476Z,79.20
2019-02-15T04:59:22.969Z,79.40
2019-02-15T04:59:57.626Z,79.70
2019-02-15T05:00:32.188Z,79.80
2019-02-15T05:01:06.794Z,79.80
2019-02-15T05:01:41.351Z,79.90
2019-02-15T05:02:15.938Z,79.90
2019-02-15T05:02:50.493Z,80.60
2019-02-15T05:03:24.987Z,80.10
2019-02-15T05:03:59.613Z,80.10
2019-02-15T05:04:34.186Z,80.30
2019-02-15T05:05:08.694Z,80.50
2019-02-15T05:05:43.280Z,80.50
2019-02-15T05:06:17.764Z,80.60
2019-02-15T05:06:52.256Z,80.70
2019-02-15T05:07:26.778Z,80.80
2019-02-15T05:08:01.341Z,80.90
2019-02-15T05:08:35.838Z,81.00
2019-02-15T05:09:10.355Z,81.00
2019-02-15T05:09:45.393Z,81.20
2019-02-15T05:10:19.962Z,81.10
2019-02-15T05:10:54.466Z,81.10
2019-02-15T05:11:28.962Z,81.40
2019-02-15T05:12:04.479Z,81.20
2019-02-15T05:12:39.026Z,81.20
2019-02-15T05:13:13.546Z,81.40
2019-02-15T05:13:48.110Z,81.60
2019-02-15T05:14:22.626Z,82.20
2019-02-15T05:14:57.137Z,81.60
2019-02-15T05:15:31.730Z,81.50
2019-02-15T05:16:06.299Z,81.60
2019-02-15T05:16:40.825Z,81.70
2019-02-15T05:17:15.381Z,81.70
2019-02-15T05:17:49.884Z,81.60
2019-02-15T05:18:24.398Z,81.50
2019-02-15T05:18:58.905Z,81.70
2019-02-15T05:19:34.065Z,81.80
2019-02-15T05:20:08.777Z,81.90
2019-02-15T05:20:43.343Z,81.90
2019-02-15T05:21:17.891Z,81.70
2019-02-15T05:21:52.443Z,81.70
2019-02-15T05:22:26.940Z,81.70
2019-02-15T05:23:01.436Z,81.60
2019-02-15T05:23:36.016Z,81.60
2019-02-15T05:24:15.676Z,81.50
2019-02-15T05:24:50.169Z,81.40
2019-02-15T05:25:24.701Z,81.40
2019-02-15T05:25:59.429Z,81.50
2019-02-15T05:26:33.920Z,81.10
2019-02-15T05:27:17.224Z,81.10
2019-02-15T05:27:51.850Z,81.10
2019-02-15T05:28:26.391Z,81.10
2019-02-15T05:29:01.028Z,81.20
2019-02-15T05:29:35.542Z,81.20
2019-02-15T05:30:11.071Z,81.10
2019-02-15T05:30:45.562Z,81.10
2019-02-15T05:31:20.062Z,81.10
2019-02-15T05:31:54.676Z,81.00
2019-02-15T05:32:29.186Z,81.00
2019-02-15T05:33:03.772Z,80.90
2019-02-15T05:33:38.339Z,80.90
2019-02-15T05:34:12.882Z,80.70
2019-02-15T05:34:47.388Z,80.60
2019-02-15T05:35:21.890Z,80.70
2019-02-15T05:35:56.397Z,80.60
2019-02-15T05:36:30.906Z,80.50
2019-02-15T05:37:05.465Z,80.40
2019-02-15T05:37:39.992Z,80.30
2019-02-15T05:38:14.569Z,80.30
2019-02-15T05:38:49.223Z,80.30
2019-02-15T05:39:23.840Z,81.00
2019-02-15T05:39:58.339Z,80.40
2019-02-15T05:40:32.846Z,80.40
2019-02-15T05:41:07.401Z,80.50
2019-02-15T05:41:41.921Z,80.50
2019-02-15T05:42:16.490Z,80.50
2019-02-15T05:42:50.980Z,80.50
2019-02-15T05:43:25.568Z,80.50
2019-02-15T05:44:02.103Z,80.60
2019-02-15T05:44:36.360Z,80.50
2019-02-15T05:45:10.869Z,80.30
2019-02-15T05:45:45.472Z,80.30
2019-02-15T05:46:20.022Z,80.20
2019-02-15T05:46:54.529Z,80.20
2019-02-15T05:47:29.027Z,79.50
2019-02-15T05:48:03.643Z,79.90
2019-02-15T05:48:38.213Z,79.90
2019-02-15T05:49:12.786Z,79.80
2019-02-15T05:49:47.282Z,79.90
2019-02-15T05:50:21.898Z,80.00
2019-02-15T05:50:56.452Z,79.90
2019-02-15T05:51:30.974Z,80.00
2019-02-15T05:52:05.476Z,80.10
2019-02-15T05:52:40.049Z,80.10
2019-02-15T05:53:14.542Z,80.10
2019-02-15T05:53:49.041Z,80.10
2019-02-15T05:54:23.611Z,80.00
2019-02-15T05:54:58.164Z,80.10
2019-02-15T05:55:32.735Z,80.20
2019-02-15T05:56:07.251Z,80.20
2019-02-15T05:56:41.743Z,80.20
2019-02-15T05:57:16.256Z,80.10
2019-02-15T05:57:50.834Z,80.00
2019-02-15T05:58:25.334Z,80.20
2019-02-15T05:58:59.842Z,80.20
2019-02-15T05:59:34.423Z,80.00
2019-02-15T06:00:11.739Z,80.00
2019-02-15T06:00:46.282Z,80.00
2019-02-15T06:01:21.703Z,80.00
2019-02-15T06:01:56.271Z,80.00
2019-02-15T06:02:30.812Z,79.60
2019-02-15T06:03:05.401Z,79.50
2019-02-15T06:03:39.967Z,80.30
2019-02-15T06:04:14.543Z,79.50
2019-02-15T06:04:49.074Z,79.50
2019-02-15T06:05:23.655Z,79.40
2019-02-15T06:05:58.138Z,79.30
2019-02-15T06:06:32.681Z,79.30
2019-02-15T06:07:07.241Z,79.20
2019-02-15T06:07:41.746Z,79.30
2019-02-15T06:08:16.238Z,79.20
2019-02-15T06:08:50.724Z,79.20
2019-02-15T06:09:25.317Z,79.20
2019-02-15T06:09:59.828Z,79.20
2019-02-15T06:10:34.405Z,79.20
2019-02-15T06:11:09.131Z,79.00
2019-02-15T06:11:43.819Z,79.00
2019-02-15T06:12:18.322Z,79.00
2019-02-15T06:12:52.814Z,78.80
2019-02-15T06:13:27.330Z,78.70
2019-02-15T06:14:01.902Z,78.60
2019-02-15T06:14:36.417Z,78.70
2019-02-15T06:15:15.324Z,78.70
2019-02-15T06:15:47.192Z,78.60
2019-02-15T06:16:22.993Z,78.80
2019-02-15T06:16:57.502Z,78.90
2019-02-15T06:17:31.998Z,78.90
2019-02-15T06:18:06.568Z,79.00
2019-02-15T06:18:41.135Z,78.90
2019-02-15T06:19:15.675Z,79.00
2019-02-15T06:19:50.185Z,78.80
2019-02-15T06:20:24.754Z,78.40
2019-02-15T06:20:59.253Z,78.30
2019-02-15T06:21:33.748Z,78.30
2019-02-15T06:22:10.504Z,78.80
2019-02-15T06:22:44.445Z,78.20
2019-02-15T06:23:19.017Z,78.30
2019-02-15T06:23:53.581Z,78.10
2019-02-15T06:24:28.087Z,79.40
2019-02-15T06:25:02.958Z,79.40
2019-02-15T06:25:37.561Z,79.50
2019-02-15T06:26:12.080Z,79.00
2019-02-15T06:26:46.653Z,78.50
2019-02-15T06:27:21.136Z,79.40
2019-02-15T06:27:56.037Z,79.60
2019-02-15T06:28:30.523Z,79.40
2019-02-15T06:29:05.200Z,79.00
2019-02-15T06:29:39.698Z,78.40
2019-02-15T06:30:14.237Z,78.20
2019-02-15T06:30:48.739Z,78.20
2019-02-15T06:31:23.235Z,78.00
2019-02-15T06:31:57.732Z,77.80
2019-02-15T06:32:32.234Z,77.70
2019-02-15T06:33:06.765Z,77.80
2019-02-15T06:33:41.257Z,79.40
2019-02-15T06:34:15.749Z,80.50
2019-02-15T06:34:50.354Z,80.40
2019-02-15T06:35:25.048Z,80.10
2019-02-15T06:35:59.545Z,79.70
2019-02-15T06:36:35.532Z,79.30
2019-02-15T06:37:10.109Z,78.80
2019-02-15T06:37:44.957Z,78.70
2019-02-15T06:38:19.607Z,78.80
2019-02-15T06:38:54.169Z,78.30
2019-02-15T06:39:28.710Z,78.40
2019-02-15T06:40:03.905Z,77.80
2019-02-15T06:40:38.403Z,77.70
2019-02-15T06:41:12.904Z,77.80
2019-02-15T06:41:47.397Z,77.60
2019-02-15T06:42:21.966Z,77.50
2019-02-15T06:42:56.465Z,77.60
2019-02-15T06:43:31.025Z,77.50
2019-02-15T06:44:05.542Z,77.30
2019-02-15T06:44:40.085Z,77.40
2019-02-15T06:45:23.974Z,77.30
2019-02-15T06:45:50.768Z,77.10
2019-02-15T06:46:25.261Z,76.80
2019-02-15T06:46:59.758Z,76.60
2019-02-15T06:47:34.265Z,76.20
2019-02-15T06:48:08.788Z,75.90
2019-02-15T06:48:43.288Z,75.70
2019-02-15T06:49:17.849Z,75.90
2019-02-15T06:49:52.356Z,75.20
2019-02-15T06:50:26.890Z,75.00
2019-02-15T06:51:01.457Z,74.90
2019-02-15T06:51:35.947Z,74.90
2019-02-15T06:52:10.440Z,75.00
2019-02-15T06:52:45.005Z,75.40
2019-02-15T06:53:19.574Z,74.90
2019-02-15T06:53:54.087Z,74.90
2019-02-15T06:54:28.590Z,74.80
2019-02-15T06:55:03.089Z,74.70
2019-02-15T06:55:37.586Z,74.80
2019-02-15T06:56:12.167Z,74.70
2019-02-15T06:56:46.680Z,74.60
2019-02-15T06:57:21.185Z,74.40
2019-02-15T06:57:55.684Z,74.30
2019-02-15T06:58:45.299Z,74.50
2019-02-15T06:59:23.995Z,74.40
2019-02-15T07:00:12.334Z,74.30
2019-02-15T07:01:06.865Z,74.50
2019-02-15T07:01:43.091Z,74.50
2019-02-15T07:02:19.259Z,74.50
2019-02-15T07:02:55.451Z,74.70
2019-02-15T07:03:31.591Z,74.80
2019-02-15T07:04:07.810Z,74.80
2019-02-15T07:04:49.592Z,74.90
2019-02-15T07:05:26.269Z,74.90
2019-02-15T07:06:00.898Z,74.90
2019-02-15T07:06:35.465Z,74.90
2019-02-15T07:07:10.317Z,74.80
2019-02-15T07:07:44.898Z,74.70
2019-02-15T07:08:19.393Z,74.60
2019-02-15T07:08:55.356Z,74.70
2019-02-15T07:09:29.889Z,74.70
2019-02-15T07:10:06.399Z,74.70
2019-02-15T07:10:40.963Z,74.70
2019-02-15T07:11:15.472Z,74.60
2019-02-15T07:11:50.044Z,74.60
2019-02-15T07:12:24.627Z,74.70
2019-02-15T07:12:59.193Z,75.40
2019-02-15T07:13:33.694Z,74.70
2019-02-15T07:14:08.201Z,74.70
2019-02-15T07:14:42.703Z,74.60
2019-02-15T07:15:17.265Z,74.60
2019-02-15T07:15:51.846Z,75.00
2019-02-15T07:16:26.347Z,74.60
2019-02-15T07:17:00.867Z,74.60
2019-02-15T07:17:35.585Z,74.50
2019-02-15T07:18:10.151Z,74.60
2019-02-15T07:18:44.645Z,74.60
2019-02-15T07:19:19.218Z,74.70
2019-02-15T07:19:53.722Z,74.60
2019-02-15T07:20:28.215Z,74.60
2019-02-15T07:21:02.743Z,74.60
2019-02-15T07:21:37.320Z,74.60
2019-02-15T07:22:11.958Z,74.90
2019-02-15T07:22:46.626Z,75.00
2019-02-15T07:23:21.135Z,74.90
2019-02-15T07:23:55.637Z,75.00
2019-02-15T07:24:30.200Z,75.00
2019-02-15T07:25:09.404Z,75.00
2019-02-15T07:25:43.917Z,75.00
2019-02-15T07:26:19.501Z,75.00
2019-02-15T07:26:53.999Z,74.90
2019-02-15T07:27:28.493Z,74.60
2019-02-15T07:28:03.040Z,74.50
2019-02-15T07:28:37.544Z,74.40
2019-02-15T07:29:12.033Z,74.50
2019-02-15T07:29:46.659Z,74.50
2019-02-15T07:30:21.159Z,74.60
2019-02-15T07:30:55.758Z,74.70
2019-02-15T07:31:30.332Z,74.80
2019-02-15T07:32:04.908Z,75.00
2019-02-15T07:32:39.565Z,75.00
2019-02-15T07:33:16.759Z,75.00
2019-02-15T07:33:50.388Z,75.00
2019-02-15T07:34:24.945Z,74.90
2019-02-15T07:34:59.443Z,75.00
2019-02-15T07:35:34.045Z,74.90
2019-02-15T07:36:08.693Z,74.90
2019-02-15T07:36:43.270Z,74.80
2019-02-15T07:37:17.829Z,75.00
2019-02-15T07:37:52.452Z,75.00
2019-02-15T07:38:27.033Z,75.00